sensor_id;sensor_type;location;lat;lon;timestamp;pressure;altitude;pressure_sealevel;temperature;humidity
31299;BME280;17927;52.350;13.402;2023-02-14T00:01:43;103362.28;;;11.53;52.49
31299;BME280;17927;52.350;13.402;2023-02-14T00:04:08;103366.75;;;11.54;52.42
31299;BME280;17927;52.350;13.402;2023-02-14T00:06:34;103366.75;;;11.54;52.32
31299;BME280;17927;52.350;13.402;2023-02-14T00:09:04;103358.63;;;11.54;52.34
31299;BME280;17927;52.350;13.402;2023-02-14T00:11:29;103363.16;;;11.54;52.45
31299;BME280;17927;52.350;13.402;2023-02-14T00:13:55;103356.88;;;11.53;52.49
31299;BME280;17927;52.350;13.402;2023-02-14T00:16:39;103361.50;;;11.51;52.43
31299;BME280;17927;52.350;13.402;2023-02-14T00:19:05;103360.53;;;11.52;52.24
31299;BME280;17927;52.350;13.402;2023-02-14T00:21:31;103363.25;;;11.52;52.62
31299;BME280;17927;52.350;13.402;2023-02-14T00:23:57;103357.84;;;11.52;52.21
31299;BME280;17927;52.350;13.402;2023-02-14T00:26:22;103355.03;;;11.54;52.29
31299;BME280;17927;52.350;13.402;2023-02-14T00:28:47;103368.56;;;11.54;52.31
31299;BME280;17927;52.350;13.402;2023-02-14T00:31:12;103365.00;;;11.53;52.33
31299;BME280;17927;52.350;13.402;2023-02-14T00:33:38;103368.66;;;11.52;52.53
31299;BME280;17927;52.350;13.402;2023-02-14T00:36:04;103360.63;;;11.51;52.39
31299;BME280;17927;52.350;13.402;2023-02-14T00:38:31;103360.63;;;11.51;52.35
31299;BME280;17927;52.350;13.402;2023-02-14T00:40:56;103361.59;;;11.50;52.33
31299;BME280;17927;52.350;13.402;2023-02-14T00:43:22;103358.09;;;11.48;52.29
31299;BME280;17927;52.350;13.402;2023-02-14T00:45:47;103362.63;;;11.47;52.62
31299;BME280;17927;52.350;13.402;2023-02-14T00:48:12;103358.16;;;11.46;52.58
31299;BME280;17927;52.350;13.402;2023-02-14T00:50:37;103358.34;;;11.43;52.55
31299;BME280;17927;52.350;13.402;2023-02-14T00:53:03;103355.66;;;11.43;52.40
31299;BME280;17927;52.350;13.402;2023-02-14T00:55:28;103361.94;;;11.43;52.55
31299;BME280;17927;52.350;13.402;2023-02-14T00:57:53;103357.41;;;11.44;52.37
31299;BME280;17927;52.350;13.402;2023-02-14T01:00:19;103358.25;;;11.45;52.55
31299;BME280;17927;52.350;13.402;2023-02-14T01:02:44;103355.56;;;11.45;52.23
31299;BME280;17927;52.350;13.402;2023-02-14T01:05:09;103356.59;;;11.42;52.39
31299;BME280;17927;52.350;13.402;2023-02-14T01:07:34;103348.66;;;11.39;52.47
31299;BME280;17927;52.350;13.402;2023-02-14T01:10:00;103349.50;;;11.39;52.30
31299;BME280;17927;52.350;13.402;2023-02-14T01:12:25;103344.09;;;11.39;52.17
31299;BME280;17927;52.350;13.402;2023-02-14T01:14:50;103338.69;;;11.39;52.36
31299;BME280;17927;52.350;13.402;2023-02-14T01:17:15;103340.53;;;11.39;52.48
31299;BME280;17927;52.350;13.402;2023-02-14T01:19:41;103338.69;;;11.39;52.39
31299;BME280;17927;52.350;13.402;2023-02-14T01:22:07;103339.47;;;11.41;52.32
31299;BME280;17927;52.350;13.402;2023-02-14T01:24:32;103334.84;;;11.43;52.09
31299;BME280;17927;52.350;13.402;2023-02-14T01:26:57;103339.41;;;11.43;51.92
31299;BME280;17927;52.350;13.402;2023-02-14T01:29:22;103335.75;;;11.44;52.07
31299;BME280;17927;52.350;13.402;2023-02-14T01:31:48;103338.47;;;11.44;52.09
31299;BME280;17927;52.350;13.402;2023-02-14T01:34:13;103333.03;;;11.44;52.10
31299;BME280;17927;52.350;13.402;2023-02-14T01:36:39;103334.84;;;11.43;51.91
31299;BME280;17927;52.350;13.402;2023-02-14T01:39:07;103328.59;;;11.43;51.99
31299;BME280;17927;52.350;13.402;2023-02-14T01:41:36;103325.16;;;11.39;52.21
31299;BME280;17927;52.350;13.402;2023-02-14T01:46:40;103319.75;;;11.39;52.25
31299;BME280;17927;52.350;13.402;2023-02-14T01:49:14;103310.66;;;11.40;51.96
31299;BME280;17927;52.350;13.402;2023-02-14T01:51:51;103316.16;;;11.39;51.95
31299;BME280;17927;52.350;13.402;2023-02-14T01:54:19;103318.78;;;11.40;51.95
31299;BME280;17927;52.350;13.402;2023-02-14T01:56:50;103318.78;;;11.40;51.91
31299;BME280;17927;52.350;13.402;2023-02-14T01:59:19;103316.88;;;11.42;51.78
31299;BME280;17927;52.350;13.402;2023-02-14T02:01:48;103313.31;;;11.42;51.96
31299;BME280;17927;52.350;13.402;2023-02-14T02:04:17;103312.41;;;11.41;51.99
31299;BME280;17927;52.350;13.402;2023-02-14T02:06:49;103307.97;;;11.40;51.87
31299;BME280;17927;52.350;13.402;2023-02-14T02:11:49;103314.41;;;11.38;51.58
31299;BME280;17927;52.350;13.402;2023-02-14T02:14:17;103316.25;;;11.37;51.72
31299;BME280;17927;52.350;13.402;2023-02-14T02:16:58;103316.34;;;11.36;51.81
31299;BME280;17927;52.350;13.402;2023-02-14T02:19:57;103321.06;;;11.32;51.57
31299;BME280;17927;52.350;13.402;2023-02-14T02:25:47;103314.16;;;11.26;51.74
31299;BME280;17927;52.350;13.402;2023-02-14T02:31:26;103325.03;;;11.25;52.01
31299;BME280;17927;52.350;13.402;2023-02-14T02:37:10;103318.16;;;11.19;52.22
31299;BME280;17927;52.350;13.402;2023-02-14T02:39:45;103319.88;;;11.20;51.87
31299;BME280;17927;52.350;13.402;2023-02-14T02:42:49;103316.13;;;11.23;51.94
31299;BME280;17927;52.350;13.402;2023-02-14T02:48:04;103317.19;;;11.20;52.21
31299;BME280;17927;52.350;13.402;2023-02-14T02:50:39;103318.25;;;11.18;52.20
31299;BME280;17927;52.350;13.402;2023-02-14T02:56:04;103314.66;;;11.17;52.31
31299;BME280;17927;52.350;13.402;2023-02-14T02:58:59;103315.69;;;11.15;52.27
31299;BME280;17927;52.350;13.402;2023-02-14T03:01:29;103314.09;;;11.10;52.19
31299;BME280;17927;52.350;13.402;2023-02-14T03:04:00;103314.28;;;11.07;52.20
31299;BME280;17927;52.350;13.402;2023-02-14T03:06:47;103312.78;;;11.02;52.43
31299;BME280;17927;52.350;13.402;2023-02-14T03:12:09;103316.44;;;11.01;52.24
31299;BME280;17927;52.350;13.402;2023-02-14T03:14:49;103314.53;;;11.03;52.41
31299;BME280;17927;52.350;13.402;2023-02-14T03:22:48;103305.72;;;10.99;52.51
31299;BME280;17927;52.350;13.402;2023-02-14T03:25:23;103315.66;;;10.99;52.34
31299;BME280;17927;52.350;13.402;2023-02-14T03:27:55;103316.63;;;10.98;52.20
31299;BME280;17927;52.350;13.402;2023-02-14T03:30:38;103308.31;;;11.01;52.45
31299;BME280;17927;52.350;13.402;2023-02-14T03:33:53;103307.53;;;10.99;52.38
31299;BME280;17927;52.350;13.402;2023-02-14T03:36:30;103307.47;;;11.00;52.77
31299;BME280;17927;52.350;13.402;2023-02-14T03:39:07;103301.97;;;11.02;52.52
31299;BME280;17927;52.350;13.402;2023-02-14T03:41:41;103308.31;;;11.01;52.81
31299;BME280;17927;52.350;13.402;2023-02-14T03:44:11;103312.78;;;11.02;52.82
31299;BME280;17927;52.350;13.402;2023-02-14T03:46:47;103303.81;;;11.01;52.76
31299;BME280;17927;52.350;13.402;2023-02-14T03:49:19;103322.63;;;11.03;52.80
31299;BME280;17927;52.350;13.402;2023-02-14T03:51:48;103320.84;;;11.03;52.90
31299;BME280;17927;52.350;13.402;2023-02-14T03:54:16;103326.25;;;11.03;52.64
31299;BME280;17927;52.350;13.402;2023-02-14T03:56:48;103311.03;;;11.01;52.69
31299;BME280;17927;52.350;13.402;2023-02-14T03:59:16;103315.84;;;10.95;52.73
31299;BME280;17927;52.350;13.402;2023-02-14T04:02:08;103302.47;;;10.92;52.59
31299;BME280;17927;52.350;13.402;2023-02-14T04:04:38;103304.38;;;10.90;53.17
31299;BME280;17927;52.350;13.402;2023-02-14T04:07:17;103303.44;;;10.91;53.14
31299;BME280;17927;52.350;13.402;2023-02-14T04:09:42;103317.81;;;10.92;53.18
31299;BME280;17927;52.350;13.402;2023-02-14T04:12:08;103317.81;;;10.92;53.04
31299;BME280;17927;52.350;13.402;2023-02-14T04:14:34;103306.94;;;10.93;52.97
31299;BME280;17927;52.350;13.402;2023-02-14T04:16:59;103305.09;;;10.94;52.84
31299;BME280;17927;52.350;13.402;2023-02-14T04:19:43;103307.88;;;10.92;53.01
31299;BME280;17927;52.350;13.402;2023-02-14T04:22:09;103312.41;;;10.92;52.82
31299;BME280;17927;52.350;13.402;2023-02-14T04:24:34;103307.00;;;10.92;52.96
31299;BME280;17927;52.350;13.402;2023-02-14T04:26:59;103298.81;;;10.93;52.91
31299;BME280;17927;52.350;13.402;2023-02-14T04:29:42;103295.22;;;10.93;52.88
31299;BME280;17927;52.350;13.402;2023-02-14T04:32:11;103306.03;;;10.93;53.05
31299;BME280;17927;52.350;13.402;2023-02-14T04:34:37;103301.69;;;10.90;53.10
31299;BME280;17927;52.350;13.402;2023-02-14T04:37:03;103301.69;;;10.90;52.98
31299;BME280;17927;52.350;13.402;2023-02-14T04:39:29;103298.09;;;10.90;52.96
31299;BME280;17927;52.350;13.402;2023-02-14T04:41:54;103295.41;;;10.90;52.90
31299;BME280;17927;52.350;13.402;2023-02-14T04:44:19;103300.72;;;10.91;53.05
31299;BME280;17927;52.350;13.402;2023-02-14T04:46:45;103303.31;;;10.93;52.78
31299;BME280;17927;52.350;13.402;2023-02-14T04:49:10;103292.59;;;10.91;52.78
31299;BME280;17927;52.350;13.402;2023-02-14T04:51:35;103293.47;;;10.92;53.25
31299;BME280;17927;52.350;13.402;2023-02-14T04:54:00;103289.91;;;10.91;52.93
31299;BME280;17927;52.350;13.402;2023-02-14T04:56:26;103294.50;;;10.89;52.81
31299;BME280;17927;52.350;13.402;2023-02-14T04:58:52;103280.28;;;10.86;53.18
31299;BME280;17927;52.350;13.402;2023-02-14T05:01:17;103276.69;;;10.85;53.12
31299;BME280;17927;52.350;13.402;2023-02-14T05:03:43;103278.53;;;10.85;53.06
31299;BME280;17927;52.350;13.402;2023-02-14T05:06:08;103280.34;;;10.84;52.79
31299;BME280;17927;52.350;13.402;2023-02-14T05:08:33;103281.25;;;10.85;52.82
31299;BME280;17927;52.350;13.402;2023-02-14T05:10:58;103278.53;;;10.85;52.97
31299;BME280;17927;52.350;13.402;2023-02-14T05:13:24;103280.28;;;10.86;52.83
31299;BME280;17927;52.350;13.402;2023-02-14T05:15:49;103282.03;;;10.87;52.84
31299;BME280;17927;52.350;13.402;2023-02-14T05:18:14;103283.00;;;10.86;52.96
31299;BME280;17927;52.350;13.402;2023-02-14T05:20:39;103279.50;;;10.84;52.74
31299;BME280;17927;52.350;13.402;2023-02-14T05:23:04;103271.53;;;10.80;52.98
31299;BME280;17927;52.350;13.402;2023-02-14T05:25:31;103269.81;;;10.79;52.66
31299;BME280;17927;52.350;13.402;2023-02-14T05:27:57;103268.94;;;10.79;52.74
31299;BME280;17927;52.350;13.402;2023-02-14T05:30:23;103268.94;;;10.79;53.01
31299;BME280;17927;52.350;13.402;2023-02-14T05:32:52;103266.13;;;10.80;52.97
31299;BME280;17927;52.350;13.402;2023-02-14T05:35:17;103268.78;;;10.82;52.91
31299;BME280;17927;52.350;13.402;2023-02-14T05:37:43;103263.38;;;10.82;52.75
31299;BME280;17927;52.350;13.402;2023-02-14T05:40:08;103265.03;;;10.85;52.99
31299;BME280;17927;52.350;13.402;2023-02-14T05:42:34;103262.31;;;10.85;52.73
31299;BME280;17927;52.350;13.402;2023-02-14T05:44:59;103264.13;;;10.84;52.92
31299;BME280;17927;52.350;13.402;2023-02-14T05:47:24;103273.03;;;10.86;52.87
31299;BME280;17927;52.350;13.402;2023-02-14T05:49:49;103274.88;;;10.86;52.68
31299;BME280;17927;52.350;13.402;2023-02-14T05:52:15;103273.94;;;10.87;53.03
31299;BME280;17927;52.350;13.402;2023-02-14T05:54:40;103268.59;;;10.85;53.07
31299;BME280;17927;52.350;13.402;2023-02-14T05:57:05;103273.03;;;10.86;52.78
31299;BME280;17927;52.350;13.402;2023-02-14T05:59:30;103268.59;;;10.85;52.96
31299;BME280;17927;52.350;13.402;2023-02-14T06:01:55;103271.22;;;10.87;52.75
31299;BME280;17927;52.350;13.402;2023-02-14T06:04:21;103275.75;;;10.86;52.99
31299;BME280;17927;52.350;13.402;2023-02-14T06:06:46;103268.59;;;10.85;52.96
31299;BME280;17927;52.350;13.402;2023-02-14T06:09:11;103262.38;;;10.83;53.06
31299;BME280;17927;52.350;13.402;2023-02-14T06:11:37;103270.50;;;10.83;53.18
31299;BME280;17927;52.350;13.402;2023-02-14T06:14:02;103270.59;;;10.81;52.96
31299;BME280;17927;52.350;13.402;2023-02-14T06:16:27;103270.59;;;10.81;52.95
31299;BME280;17927;52.350;13.402;2023-02-14T06:18:52;103271.47;;;10.82;52.98
31299;BME280;17927;52.350;13.402;2023-02-14T06:21:18;103270.69;;;10.80;53.27
31299;BME280;17927;52.350;13.402;2023-02-14T06:23:43;103279.66;;;10.80;53.09
31299;BME280;17927;52.350;13.402;2023-02-14T06:26:08;103279.66;;;10.80;53.30
31299;BME280;17927;52.350;13.402;2023-02-14T06:28:33;103276.00;;;10.81;53.25
31299;BME280;17927;52.350;13.402;2023-02-14T06:30:59;103284.13;;;10.81;53.12
31299;BME280;17927;52.350;13.402;2023-02-14T06:33:24;103275.16;;;10.81;53.22
31299;BME280;17927;52.350;13.402;2023-02-14T06:35:49;103279.75;;;10.79;53.18
31299;BME280;17927;52.350;13.402;2023-02-14T06:38:17;103281.56;;;10.78;52.99
31299;BME280;17927;52.350;13.402;2023-02-14T06:40:42;103278.88;;;10.78;53.06
31299;BME280;17927;52.350;13.402;2023-02-14T06:43:07;103272.59;;;10.78;53.16
31299;BME280;17927;52.350;13.402;2023-02-14T06:45:32;103277.06;;;10.79;53.41
31299;BME280;17927;52.350;13.402;2023-02-14T06:47:57;103279.75;;;10.79;52.84
31299;BME280;17927;52.350;13.402;2023-02-14T06:50:24;103273.41;;;10.80;53.43
31299;BME280;17927;52.350;13.402;2023-02-14T06:52:49;103272.50;;;10.79;53.37
31299;BME280;17927;52.350;13.402;2023-02-14T06:55:16;103276.09;;;10.80;53.21
31299;BME280;17927;52.350;13.402;2023-02-14T06:57:41;103274.25;;;10.80;53.43
31299;BME280;17927;52.350;13.402;2023-02-14T07:00:06;103273.41;;;10.80;53.42
31299;BME280;17927;52.350;13.402;2023-02-14T07:02:32;103275.19;;;10.79;53.49
31299;BME280;17927;52.350;13.402;2023-02-14T07:04:57;103277.84;;;10.81;53.20
31299;BME280;17927;52.350;13.402;2023-02-14T07:07:22;103274.25;;;10.80;53.43
31299;BME280;17927;52.350;13.402;2023-02-14T07:09:47;103273.28;;;10.81;53.06
31299;BME280;17927;52.350;13.402;2023-02-14T07:12:13;103276.00;;;10.81;53.22
31299;BME280;17927;52.350;13.402;2023-02-14T07:14:38;103273.28;;;10.81;53.31
31299;BME280;17927;52.350;13.402;2023-02-14T07:17:03;103262.31;;;10.85;53.42
31299;BME280;17927;52.350;13.402;2023-02-14T07:19:29;103270.34;;;10.86;53.22
31299;BME280;17927;52.350;13.402;2023-02-14T07:21:54;103260.47;;;10.85;53.15
31299;BME280;17927;52.350;13.402;2023-02-14T07:24:19;103260.41;;;10.87;53.19
31299;BME280;17927;52.350;13.402;2023-02-14T07:26:44;103267.56;;;10.88;53.27
31299;BME280;17927;52.350;13.402;2023-02-14T07:29:09;103266.50;;;10.90;53.28
31299;BME280;17927;52.350;13.402;2023-02-14T07:31:35;103273.56;;;10.93;53.26
31299;BME280;17927;52.350;13.402;2023-02-14T07:34:00;103269.91;;;10.94;53.58
31299;BME280;17927;52.350;13.402;2023-02-14T07:36:26;103270.72;;;10.96;53.47
31299;BME280;17927;52.350;13.402;2023-02-14T07:38:51;103270.66;;;10.98;53.33
31299;BME280;17927;52.350;13.402;2023-02-14T07:41:16;103266.88;;;11.00;53.39
31299;BME280;17927;52.350;13.402;2023-02-14T07:43:41;103269.50;;;11.02;53.54
31299;BME280;17927;52.350;13.402;2023-02-14T07:46:07;103273.88;;;11.04;53.44
31299;BME280;17927;52.350;13.402;2023-02-14T07:48:32;103269.16;;;11.08;53.68
31299;BME280;17927;52.350;13.402;2023-02-14T07:50:58;103268.22;;;11.09;53.91
31299;BME280;17927;52.350;13.402;2023-02-14T07:53:23;103273.53;;;11.10;53.55
31299;BME280;17927;52.350;13.402;2023-02-14T07:55:50;103275.22;;;11.13;53.51
31299;BME280;17927;52.350;13.402;2023-02-14T07:58:15;103273.19;;;11.17;53.66
31299;BME280;17927;52.350;13.402;2023-02-14T08:00:41;103274.94;;;11.18;53.76
31299;BME280;17927;52.350;13.402;2023-02-14T08:03:06;103277.66;;;11.18;53.55
31299;BME280;17927;52.350;13.402;2023-02-14T08:05:31;103277.56;;;11.19;53.66
31299;BME280;17927;52.350;13.402;2023-02-14T08:07:56;103273.78;;;11.22;53.53
31299;BME280;17927;52.350;13.402;2023-02-14T08:10:22;103279.22;;;11.22;53.57
31299;BME280;17927;52.350;13.402;2023-02-14T08:12:47;103280.88;;;11.24;53.35
31299;BME280;17927;52.350;13.402;2023-02-14T08:15:26;103279.94;;;11.25;53.73
31299;BME280;17927;52.350;13.402;2023-02-14T08:18:11;103282.72;;;11.24;53.61
31299;BME280;17927;52.350;13.402;2023-02-14T08:20:36;103285.34;;;11.25;53.69
31299;BME280;17927;52.350;13.402;2023-02-14T08:23:01;103289.81;;;11.26;53.58
31299;BME280;17927;52.350;13.402;2023-02-14T08:25:27;103288.84;;;11.27;53.52
31299;BME280;17927;52.350;13.402;2023-02-14T08:27:52;103295.13;;;11.28;53.56
31299;BME280;17927;52.350;13.402;2023-02-14T08:30:19;103297.81;;;11.28;53.17
31299;BME280;17927;52.350;13.402;2023-02-14T08:32:45;103303.22;;;11.28;53.35
31299;BME280;17927;52.350;13.402;2023-02-14T08:35:10;103298.63;;;11.30;53.56
31299;BME280;17927;52.350;13.402;2023-02-14T08:37:35;103299.41;;;11.32;53.58
31299;BME280;17927;52.350;13.402;2023-02-14T08:40:01;103302.81;;;11.36;53.39
31299;BME280;17927;52.350;13.402;2023-02-14T08:42:26;103300.78;;;11.39;53.60
31299;BME280;17927;52.350;13.402;2023-02-14T08:44:51;103302.47;;;11.42;53.26
31299;BME280;17927;52.350;13.402;2023-02-14T08:47:16;103295.91;;;11.46;53.27
31299;BME280;17927;52.350;13.402;2023-02-14T08:49:42;103303.78;;;11.51;53.23
31299;BME280;17927;52.350;13.402;2023-02-14T08:52:07;103307.19;;;11.54;53.33
31299;BME280;17927;52.350;13.402;2023-02-14T08:54:32;103308.84;;;11.57;53.26
31299;BME280;17927;52.350;13.402;2023-02-14T08:56:58;103310.53;;;11.60;53.10
31299;BME280;17927;52.350;13.402;2023-02-14T08:59:23;103307.72;;;11.61;53.14
31299;BME280;17927;52.350;13.402;2023-02-14T09:01:48;103309.34;;;11.64;53.27
31299;BME280;17927;52.350;13.402;2023-02-14T09:04:13;103305.69;;;11.65;53.34
31299;BME280;17927;52.350;13.402;2023-02-14T09:06:39;103305.63;;;11.66;53.00
31299;BME280;17927;52.350;13.402;2023-02-14T09:09:05;103304.66;;;11.67;53.14
31299;BME280;17927;52.350;13.402;2023-02-14T09:11:30;103305.53;;;11.68;53.12
31299;BME280;17927;52.350;13.402;2023-02-14T09:13:56;103308.13;;;11.69;52.99
31299;BME280;17927;52.350;13.402;2023-02-14T09:16:22;103310.66;;;11.72;52.71
31299;BME280;17927;52.350;13.402;2023-02-14T09:18:48;103306.03;;;11.75;52.73
31299;BME280;17927;52.350;13.402;2023-02-14T09:21:20;103302.28;;;11.77;52.64
31299;BME280;17927;52.350;13.402;2023-02-14T09:23:45;103301.31;;;11.78;52.90
31299;BME280;17927;52.350;13.402;2023-02-14T09:26:13;103305.69;;;11.81;52.76
31299;BME280;17927;52.350;13.402;2023-02-14T09:28:38;103308.41;;;11.81;52.65
31299;BME280;17927;52.350;13.402;2023-02-14T09:31:21;103309.09;;;11.84;52.53
31299;BME280;17927;52.350;13.402;2023-02-14T09:33:48;103300.97;;;11.84;52.64
31299;BME280;17927;52.350;13.402;2023-02-14T09:36:13;103303.50;;;11.87;52.48
31299;BME280;17927;52.350;13.402;2023-02-14T09:38:58;103313.44;;;11.87;52.85
31299;BME280;17927;52.350;13.402;2023-02-14T09:43:59;103310.47;;;11.92;52.70
31299;BME280;17927;52.350;13.402;2023-02-14T09:46:27;103318.41;;;11.95;52.76
31299;BME280;17927;52.350;13.402;2023-02-14T09:48:53;103320.97;;;11.98;52.53
31299;BME280;17927;52.350;13.402;2023-02-14T09:51:22;103312.69;;;12.01;52.78
31299;BME280;17927;52.350;13.402;2023-02-14T09:53:51;103316.19;;;12.03;52.52
31299;BME280;17927;52.350;13.402;2023-02-14T09:59:02;103321.22;;;12.09;52.41
31299;BME280;17927;52.350;13.402;2023-02-14T10:01:41;103322.00;;;12.11;52.23
31299;BME280;17927;52.350;13.402;2023-02-14T10:04:23;103318.44;;;12.11;52.59
31299;BME280;17927;52.350;13.402;2023-02-14T10:07:20;103313.03;;;12.11;52.52
31299;BME280;17927;52.350;13.402;2023-02-14T10:10:23;103314.78;;;12.12;52.68
31299;BME280;17927;52.350;13.402;2023-02-14T10:13:03;103308.47;;;12.11;52.46
31299;BME280;17927;52.350;13.402;2023-02-14T10:15:33;103308.41;;;12.13;52.44
31299;BME280;17927;52.350;13.402;2023-02-14T10:18:37;103311.78;;;12.16;52.07
31299;BME280;17927;52.350;13.402;2023-02-14T10:21:05;103314.56;;;12.15;52.11
31299;BME280;17927;52.350;13.402;2023-02-14T10:23:38;103317.88;;;12.20;52.00
31299;BME280;17927;52.350;13.402;2023-02-14T10:28:42;103306.88;;;12.23;51.80
31299;BME280;17927;52.350;13.402;2023-02-14T10:31:26;103308.44;;;12.27;51.69
31299;BME280;17927;52.350;13.402;2023-02-14T10:34:08;103311.03;;;12.29;51.88
31299;BME280;17927;52.350;13.402;2023-02-14T10:36:43;103309.22;;;12.29;51.84
31299;BME280;17927;52.350;13.402;2023-02-14T10:39:39;103291.91;;;12.32;51.46
31299;BME280;17927;52.350;13.402;2023-02-14T10:44:58;103295.38;;;12.34;51.62
31299;BME280;17927;52.350;13.402;2023-02-14T10:47:50;103295.22;;;12.37;51.46
31299;BME280;17927;52.350;13.402;2023-02-14T10:50:29;103295.22;;;12.37;51.49
31299;BME280;17927;52.350;13.402;2023-02-14T10:53:19;103298.69;;;12.39;51.27
31299;BME280;17927;52.350;13.402;2023-02-14T10:55:57;103301.38;;;12.39;51.55
31299;BME280;17927;52.350;13.402;2023-02-14T10:58:26;103293.19;;;12.41;51.22
31299;BME280;17927;52.350;13.402;2023-02-14T11:00:58;103296.56;;;12.44;51.14
31299;BME280;17927;52.350;13.402;2023-02-14T11:03:26;103299.38;;;12.43;51.05
31299;BME280;17927;52.350;13.402;2023-02-14T11:05:52;103303.91;;;12.42;50.78
31299;BME280;17927;52.350;13.402;2023-02-14T11:08:26;103296.56;;;12.44;50.81
31299;BME280;17927;52.350;13.402;2023-02-14T11:10:55;103299.16;;;12.46;51.19
31299;BME280;17927;52.350;13.402;2023-02-14T11:13:27;103294.63;;;12.46;50.99
31299;BME280;17927;52.350;13.402;2023-02-14T11:15:57;103289.13;;;12.48;50.84
31299;BME280;17927;52.350;13.402;2023-02-14T11:18:24;103290.00;;;12.48;50.94
31299;BME280;17927;52.350;13.402;2023-02-14T11:21:15;103284.56;;;12.48;50.65
31299;BME280;17927;52.350;13.402;2023-02-14T11:23:49;103284.56;;;12.48;50.76
31299;BME280;17927;52.350;13.402;2023-02-14T11:26:24;103286.31;;;12.49;50.63
31299;BME280;17927;52.350;13.402;2023-02-14T11:28:53;103284.41;;;12.52;50.72
31299;BME280;17927;52.350;13.402;2023-02-14T11:31:25;103283.44;;;12.53;50.72
31299;BME280;17927;52.350;13.402;2023-02-14T11:33:51;103284.09;;;12.42;51.03
31299;BME280;17927;52.350;13.402;2023-02-14T11:36:18;103283.97;;;12.43;51.08
31299;BME280;17927;52.350;13.402;2023-02-14T11:38:44;103282.84;;;12.47;50.81
31299;BME280;17927;52.350;13.402;2023-02-14T11:41:13;103268.19;;;12.50;50.77
31299;BME280;17927;52.350;13.402;2023-02-14T11:43:41;103274.31;;;12.54;50.57
31299;BME280;17927;52.350;13.402;2023-02-14T11:46:23;103273.34;;;12.55;50.43
31299;BME280;17927;52.350;13.402;2023-02-14T11:51:34;103281.41;;;12.56;50.30
31299;BME280;17927;52.350;13.402;2023-02-14T11:54:01;103272.28;;;12.57;50.43
31299;BME280;17927;52.350;13.402;2023-02-14T11:56:51;103264.06;;;12.59;50.20
31299;BME280;17927;52.350;13.402;2023-02-14T11:59:24;103260.56;;;12.57;50.53
31299;BME280;17927;52.350;13.402;2023-02-14T12:01:51;103257.78;;;12.58;50.42
31299;BME280;17927;52.350;13.402;2023-02-14T12:04:27;103249.53;;;12.60;50.04
31299;BME280;17927;52.350;13.402;2023-02-14T12:07:21;103254.09;;;12.59;50.07
31299;BME280;17927;52.350;13.402;2023-02-14T12:10:05;103247.00;;;12.57;50.12
31299;BME280;17927;52.350;13.402;2023-02-14T12:12:30;103243.31;;;12.58;50.04
31299;BME280;17927;52.350;13.402;2023-02-14T12:15:32;103238.69;;;12.60;50.12
31299;BME280;17927;52.350;13.402;2023-02-14T12:26:29;103228.81;;;12.59;50.38
31299;BME280;17927;52.350;13.402;2023-02-14T12:32:11;103214.28;;;12.60;50.50
31299;BME280;17927;52.350;13.402;2023-02-14T12:34:38;103207.88;;;12.61;50.24
31299;BME280;17927;52.350;13.402;2023-02-14T12:37:12;103199.56;;;12.64;50.04
31299;BME280;17927;52.350;13.402;2023-02-14T12:40:15;103192.22;;;12.66;50.12
31299;BME280;17927;52.350;13.402;2023-02-14T12:42:54;103194.81;;;12.68;50.04
31299;BME280;17927;52.350;13.402;2023-02-14T12:45:50;103184.75;;;12.70;50.03
31299;BME280;17927;52.350;13.402;2023-02-14T12:48:27;103196.44;;;12.70;50.26
31299;BME280;17927;52.350;13.402;2023-02-14T12:54:05;103177.28;;;12.73;49.90
31299;BME280;17927;52.350;13.402;2023-02-14T13:05:20;103177.19;;;12.75;50.04
31299;BME280;17927;52.350;13.402;2023-02-14T13:07:51;103186.97;;;12.63;50.31
31299;BME280;17927;52.350;13.402;2023-02-14T13:10:42;103172.34;;;12.66;50.26
31299;BME280;17927;52.350;13.402;2023-02-14T13:13:22;103174.00;;;12.68;50.21
31299;BME280;17927;52.350;13.402;2023-02-14T13:16:20;103175.81;;;12.68;49.89
31299;BME280;17927;52.350;13.402;2023-02-14T13:19:17;103158.88;;;12.64;49.82
31299;BME280;17927;52.350;13.402;2023-02-14T13:21:45;103161.69;;;12.62;50.12
31299;BME280;17927;52.350;13.402;2023-02-14T13:26:45;103160.72;;;12.63;50.00
31299;BME280;17927;52.350;13.402;2023-02-14T13:29:16;103158.69;;;12.67;50.00
31299;BME280;17927;52.350;13.402;2023-02-14T13:31:44;103154.13;;;12.68;49.94
31299;BME280;17927;52.350;13.402;2023-02-14T13:34:27;103156.72;;;12.69;49.79
31299;BME280;17927;52.350;13.402;2023-02-14T13:36:55;103156.00;;;12.67;49.50
31299;BME280;17927;52.350;13.402;2023-02-14T13:41:59;103149.88;;;12.63;49.71
31299;BME280;17927;52.350;13.402;2023-02-14T13:44:45;103146.38;;;12.61;49.50
31299;BME280;17927;52.350;13.402;2023-02-14T13:47:23;103154.63;;;12.60;49.28
31299;BME280;17927;52.350;13.402;2023-02-14T13:49:58;103151.06;;;12.59;49.45
31299;BME280;17927;52.350;13.402;2023-02-14T13:52:40;103148.34;;;12.59;49.61
31299;BME280;17927;52.350;13.402;2023-02-14T13:55:08;103149.31;;;12.58;49.60
31299;BME280;17927;52.350;13.402;2023-02-14T13:57:38;103144.84;;;12.57;49.41
31299;BME280;17927;52.350;13.402;2023-02-14T14:02:53;103150.47;;;12.54;49.49
31299;BME280;17927;52.350;13.402;2023-02-14T14:21:42;103143.66;;;12.47;49.49
31299;BME280;17927;52.350;13.402;2023-02-14T14:24:22;103135.66;;;12.45;49.22
31299;BME280;17927;52.350;13.402;2023-02-14T14:29:29;103121.31;;;12.43;49.33